Time;durP1;ratioP1;P1;durP2;ratioP2;P2;SDS_P1;SDS_P2;PMS_P1;PMS_P2;Temp;Humidity;BMP_temperature;BMP_pressure;BME280_temperature;BME280_humidity;BME280_pressure;Samples;Min_cycle;Max_cycle;Signal;HPM_P1;HPM_P2
2022/01/02 00:00:19;;;;;;;10.45;5.90;;;3.10;75.00;;;;;;5021484;28;45973;-66
2022/01/02 00:02:51;;;;;;;11.07;5.38;;;3.10;75.00;;;;;;5021952;28;45822;-65
2022/01/02 00:05:20;;;;;;;9.30;5.40;;;3.00;75.00;;;;;;5023747;28;46381;-66
2022/01/02 00:07:50;;;;;;;8.15;5.40;;;3.00;75.50;;;;;;5011736;28;46293;-65
2022/01/02 00:10:20;;;;;;;10.70;5.32;;;2.90;75.30;;;;;;5021923;28;46468;-65
2022/01/02 00:12:51;;;;;;;7.85;4.88;;;2.80;75.30;;;;;;5023362;28;46594;-65
2022/01/02 00:15:20;;;;;;;11.45;6.00;;;2.80;76.00;;;;;;5036899;28;47370;-65
2022/01/02 00:17:49;;;;;;;11.57;6.00;;;2.70;75.40;;;;;;5019766;28;46454;-66
2022/01/02 00:20:18;;;;;;;11.32;5.70;;;2.70;75.60;;;;;;5022385;28;46238;-67
2022/01/02 00:22:50;;;;;;;8.40;5.28;;;2.70;75.60;;;;;;5023612;28;45805;-66
2022/01/02 00:25:29;;;;;;;8.95;5.20;;;2.70;75.40;;;;;;5014313;28;47880;-65
2022/01/02 00:27:55;;;;;;;8.10;4.88;;;2.70;75.40;;;;;;5021301;28;46249;-66
2022/01/02 00:30:21;;;;;;;8.63;5.28;;;2.70;75.30;;;;;;5021765;28;46539;-64
2022/01/02 00:32:51;;;;;;;8.35;5.10;;;2.70;75.20;;;;;;5021741;28;46094;-66
2022/01/02 00:35:16;;;;;;;8.57;5.30;;;2.80;75.10;;;;;;5022858;28;46379;-66
2022/01/02 00:37:42;;;;;;;7.43;4.87;;;2.80;75.00;;;;;;5021380;28;45819;-65
2022/01/02 00:40:08;;;;;;;10.10;5.40;;;2.80;75.00;;;;;;5021496;28;46317;-66
2022/01/02 00:42:41;;;;;;;8.02;4.40;;;2.80;75.10;;;;;;5037181;28;45890;-66
2022/01/02 00:45:20;;;;;;;7.60;5.00;;;2.80;75.00;;;;;;5025571;28;48817;-67
2022/01/02 00:48:17;;;;;;;11.38;5.57;;;2.70;76.20;;;;;;5020441;28;46513;-66
2022/01/02 00:50:49;;;;;;;8.80;5.05;;;2.70;75.10;;;;;;5021151;28;46348;-65
2022/01/02 00:53:18;;;;;;;8.02;4.63;;;2.70;75.20;;;;;;5037845;28;46049;-65
2022/01/02 00:55:49;;;;;;;7.00;4.63;;;2.70;75.10;;;;;;5037561;28;46437;-66
2022/01/02 00:58:19;;;;;;;11.63;5.35;;;2.70;75.00;;;;;;5022237;28;46406;-64
2022/01/02 01:00:50;;;;;;;8.75;5.30;;;2.70;75.10;;;;;;5024499;28;46366;-66
2022/01/02 01:03:25;;;;;;;8.63;4.85;;;2.70;75.10;;;;;;5024057;28;46339;-66
2022/01/02 01:05:55;;;;;;;6.90;4.95;;;2.70;75.10;;;;;;5038426;28;48772;-66
2022/01/02 01:08:23;;;;;;;7.72;4.40;;;2.60;75.10;;;;;;5024461;28;46409;-65
2022/01/02 01:10:50;;;;;;;8.52;5.05;;;2.70;75.20;;;;;;5022868;28;46220;-66
2022/01/02 01:13:19;;;;;;;10.32;5.18;;;2.60;75.10;;;;;;5023340;28;46371;-65
2022/01/02 01:15:45;;;;;;;7.82;4.50;;;2.70;75.00;;;;;;5033472;28;48768;-67
2022/01/02 01:18:11;;;;;;;6.53;4.22;;;2.80;74.90;;;;;;5022221;28;46391;-66
2022/01/02 01:20:41;;;;;;;5.87;3.60;;;2.90;75.00;;;;;;5021826;28;46275;-66
2022/01/02 01:23:08;;;;;;;8.55;4.20;;;3.00;74.90;;;;;;5022453;28;46508;-65
2022/01/02 01:25:38;;;;;;;5.53;3.70;;;3.00;74.80;;;;;;5023950;28;46918;-65
2022/01/02 01:28:04;;;;;;;9.18;4.03;;;3.20;74.80;;;;;;5022522;28;46672;-67
2022/01/02 01:30:29;;;;;;;5.77;3.67;;;3.20;74.80;;;;;;5024542;28;46474;-65
2022/01/02 01:32:55;;;;;;;6.07;3.57;;;3.30;74.70;;;;;;5022429;28;46470;-64
2022/01/02 01:35:22;;;;;;;5.00;3.53;;;3.40;74.70;;;;;;5021213;28;46457;-65
2022/01/02 01:37:49;;;;;;;5.88;3.65;;;3.30;74.70;;;;;;5035718;28;46233;-66
2022/01/02 01:40:16;;;;;;;5.47;3.50;;;3.20;75.10;;;;;;5022483;28;46296;-65
2022/01/02 01:42:54;;;;;;;8.85;3.88;;;3.20;75.20;;;;;;5023360;28;46090;-65
2022/01/02 01:48:03;;;;;;;5.43;3.37;;;3.10;75.40;;;;;;5022311;28;46268;-66
2022/01/02 01:50:46;;;;;;;6.50;3.50;;;3.10;75.40;;;;;;5038061;28;46351;-65
2022/01/02 01:53:14;;;;;;;5.65;3.40;;;3.10;75.50;;;;;;5024434;28;46541;-66
2022/01/02 01:55:40;;;;;;;7.93;3.80;;;3.10;75.40;;;;;;5029934;28;48036;-65
2022/01/02 01:58:07;;;;;;;5.60;3.57;;;3.10;75.40;;;;;;5024100;28;46245;-65
2022/01/02 02:00:35;;;;;;;5.45;3.28;;;3.10;75.40;;;;;;5024526;28;46346;-66
2022/01/02 02:03:01;;;;;;;6.53;3.72;;;3.10;75.40;;;;;;5024141;28;46348;-66
2022/01/02 02:05:27;;;;;;;4.13;2.90;;;3.10;75.40;;;;;;5024417;28;48060;-64
2022/01/02 02:07:55;;;;;;;5.30;3.97;;;3.00;75.50;;;;;;5023268;28;46265;-66
2022/01/02 02:10:46;;;;;;;4.93;3.33;;;3.00;75.70;;;;;;5024022;28;46410;-66
2022/01/02 02:13:08;;;;;;;5.22;3.40;;;2.90;75.60;;;;;;5024458;28;46374;-65
2022/01/02 02:15:34;;;;;;;8.00;3.47;;;2.90;75.70;;;;;;5023776;28;46383;-66
2022/01/02 02:18:00;;;;;;;5.72;3.53;;;2.90;75.60;;;;;;5025145;28;46365;-66
2022/01/02 02:20:29;;;;;;;4.10;2.83;;;2.90;75.60;;;;;;5024120;28;46375;-65
2022/01/02 02:22:58;;;;;;;6.25;3.95;;;2.90;75.60;;;;;;5023275;28;46396;-65
2022/01/02 02:25:30;;;;;;;5.43;3.20;;;3.00;75.70;;;;;;5023935;28;49024;-66
2022/01/02 02:28:01;;;;;;;4.00;2.70;;;3.00;75.70;;;;;;5023586;28;46330;-66
2022/01/02 02:30:29;;;;;;;5.40;2.92;;;3.00;75.60;;;;;;5024198;28;46385;-66
2022/01/02 02:32:57;;;;;;;4.78;2.78;;;3.00;75.70;;;;;;5039818;28;46536;-65
2022/01/02 02:35:24;;;;;;;6.55;3.00;;;3.10;75.80;;;;;;5040001;28;47823;-66
2022/01/02 02:37:50;;;;;;;6.22;3.38;;;3.00;75.60;;;;;;5038012;28;46397;-65
2022/01/02 02:40:19;;;;;;;4.00;2.60;;;3.00;75.60;;;;;;5023850;28;46196;-65
2022/01/02 02:42:56;;;;;;;4.60;2.90;;;3.00;75.70;;;;;;5038238;28;46394;-67
2022/01/02 02:51:13;;;;;;;6.03;3.13;;;2.80;75.80;;;;;;5024941;28;46304;-64
2022/01/02 02:53:44;;;;;;;5.82;2.95;;;2.80;75.80;;;;;;5023411;28;46456;-65
2022/01/02 02:56:24;;;;;;;4.30;2.72;;;2.80;75.70;;;;;;5013782;28;48825;-66
2022/01/02 02:58:55;;;;;;;5.60;3.30;;;2.80;75.60;;;;;;5037778;28;46445;-65
2022/01/02 03:01:22;;;;;;;6.75;3.08;;;2.70;75.70;;;;;;5023186;28;46553;-64
2022/01/02 03:03:49;;;;;;;3.03;2.60;;;2.70;75.60;;;;;;5016935;28;46348;-67
2022/01/02 03:06:16;;;;;;;5.00;2.90;;;2.70;75.70;;;;;;5022519;28;47981;-66
2022/01/02 03:08:43;;;;;;;6.57;3.35;;;2.70;75.70;;;;;;5022000;28;46250;-67
2022/01/02 03:11:21;;;;;;;5.13;3.22;;;2.70;75.70;;;;;;5022466;28;46482;-66
2022/01/02 03:13:49;;;;;;;4.45;3.00;;;2.70;75.60;;;;;;5021811;28;46488;-66
2022/01/02 03:16:18;;;;;;;3.40;2.20;;;2.70;75.40;;;;;;5009559;28;47977;-66
2022/01/02 03:18:43;;;;;;;4.75;2.90;;;2.70;75.30;;;;;;5022187;28;46381;-67
2022/01/02 03:21:12;;;;;;;3.70;2.53;;;2.70;75.20;;;;;;5024556;28;46197;-66
2022/01/02 03:23:37;;;;;;;4.05;2.40;;;2.70;75.20;;;;;;5022179;28;46374;-66
2022/01/02 03:26:03;;;;;;;3.20;2.03;;;2.70;75.30;;;;;;5022430;28;48796;-66
2022/01/02 03:28:29;;;;;;;4.25;2.53;;;2.70;75.20;;;;;;5022172;28;46335;-65
2022/01/02 03:30:55;;;;;;;3.83;2.60;;;2.80;75.20;;;;;;5022719;28;45954;-66
2022/01/02 03:33:31;;;;;;;3.65;2.78;;;2.90;75.30;;;;;;5022407;28;46373;-65
2022/01/02 03:35:57;;;;;;;3.88;2.28;;;2.90;75.20;;;;;;5022418;28;46429;-66
2022/01/02 03:38:23;;;;;;;5.83;2.37;;;3.00;75.20;;;;;;5023315;28;46320;-66
2022/01/02 03:40:48;;;;;;;3.70;2.27;;;3.00;75.10;;;;;;5022072;28;46333;-66
2022/01/02 03:43:17;;;;;;;3.80;2.60;;;3.00;75.10;;;;;;5022218;28;46393;-66
2022/01/02 03:45:43;;;;;;;3.40;2.00;;;3.10;75.20;;;;;;5022257;28;48041;-66
2022/01/02 03:48:12;;;;;;;6.13;3.30;;;3.10;75.10;;;;;;5021870;28;46635;-66
2022/01/02 03:50:37;;;;;;;5.47;2.60;;;3.00;75.00;;;;;;5022443;28;46415;-65
2022/01/02 03:53:04;;;;;;;3.40;2.63;;;3.10;75.20;;;;;;5022278;28;46441;-65
2022/01/02 03:55:30;;;;;;;3.47;2.13;;;3.00;75.20;;;;;;5026391;28;48934;-66
2022/01/02 03:57:56;;;;;;;3.17;2.22;;;3.00;75.20;;;;;;5022985;28;46421;-66
2022/01/02 04:00:21;;;;;;;5.63;2.50;;;3.00;75.20;;;;;;5022842;28;46403;-66
2022/01/02 04:02:47;;;;;;;2.97;2.00;;;3.00;75.30;;;;;;5023242;28;46616;-67
2022/01/02 04:05:14;;;;;;;5.57;2.58;;;3.00;75.20;;;;;;5021731;28;48576;-66
2022/01/02 04:07:41;;;;;;;3.40;1.90;;;3.10;75.20;;;;;;5021440;28;46445;-66
2022/01/02 04:10:09;;;;;;;3.45;2.20;;;3.10;75.20;;;;;;5024921;28;46477;-66
2022/01/02 04:12:36;;;;;;;4.88;2.47;;;3.10;75.10;;;;;;5019422;28;46410;-66
2022/01/02 04:15:06;;;;;;;4.20;2.28;;;3.10;75.00;;;;;;5022094;28;48691;-67
2022/01/02 04:17:33;;;;;;;2.75;1.90;;;3.10;75.00;;;;;;5028406;28;46347;-66
2022/01/02 04:20:03;;;;;;;3.40;2.40;;;3.10;75.00;;;;;;5021956;28;45724;-66
2022/01/02 04:22:28;;;;;;;6.32;3.00;;;3.00;74.90;;;;;;5019914;28;46546;-65
2022/01/02 04:24:54;;;;;;;3.50;2.00;;;3.00;75.10;;;;;;5022185;28;48112;-64
2022/01/02 04:27:24;;;;;;;3.60;2.00;;;3.00;75.10;;;;;;5025632;28;46584;-67
2022/01/02 04:29:56;;;;;;;2.85;1.90;;;2.90;75.20;;;;;;5025318;28;46321;-65
2022/01/02 04:32:21;;;;;;;5.03;2.20;;;3.00;75.20;;;;;;5023390;28;46438;-65
2022/01/02 04:34:47;;;;;;;3.30;2.00;;;3.00;75.10;;;;;;5020686;28;47952;-67
2022/01/02 04:37:19;;;;;;;3.80;2.27;;;2.90;75.10;;;;;;5021521;28;46371;-66
2022/01/02 04:39:45;;;;;;;4.30;2.33;;;2.90;75.20;;;;;;5019234;28;46393;-67
2022/01/02 04:42:11;;;;;;;3.33;2.30;;;2.80;75.20;;;;;;5022008;28;46606;-66
2022/01/02 04:44:36;;;;;;;3.93;2.50;;;2.80;75.20;;;;;;5022012;28;47814;-66
2022/01/02 04:47:03;;;;;;;3.13;2.27;;;2.80;75.30;;;;;;5022362;28;46381;-66
2022/01/02 04:49:32;;;;;;;4.15;2.63;;;2.70;75.20;;;;;;5014966;28;46419;-66
2022/01/02 04:51:57;;;;;;;3.97;2.40;;;2.70;75.30;;;;;;5008292;28;46605;-66
2022/01/02 04:54:24;;;;;;;3.90;2.50;;;2.70;75.30;;;;;;5020673;28;47912;-66
2022/01/02 04:56:49;;;;;;;4.22;1.95;;;2.70;75.30;;;;;;5020576;28;46299;-66
2022/01/02 04:59:15;;;;;;;3.63;1.90;;;2.60;75.20;;;;;;5021058;28;46389;-66
2022/01/02 05:01:47;;;;;;;2.95;1.83;;;2.60;75.20;;;;;;5021108;28;46406;-66
2022/01/02 05:04:13;;;;;;;3.15;2.03;;;2.60;75.20;;;;;;5020946;28;48809;-66
2022/01/02 05:06:42;;;;;;;6.77;2.47;;;2.60;75.30;;;;;;5021072;28;46272;-66
2022/01/02 05:09:08;;;;;;;2.80;2.00;;;2.50;75.30;;;;;;5021721;28;46376;-66
2022/01/02 05:11:33;;;;;;;3.60;2.10;;;2.50;75.60;;;;;;5021189;28;46620;-64
2022/01/02 05:13:59;;;;;;;3.50;2.50;;;2.50;75.50;;;;;;5020594;28;48207;-65
2022/01/02 05:16:25;;;;;;;4.37;2.03;;;2.50;75.40;;;;;;5023281;28;46404;-66
2022/01/02 05:18:53;;;;;;;2.43;1.80;;;2.40;75.30;;;;;;5022848;28;45849;-66
2022/01/02 05:21:27;;;;;;;3.10;1.90;;;2.50;75.30;;;;;;5020885;28;46666;-66
2022/01/02 05:23:53;;;;;;;3.08;1.67;;;2.50;75.20;;;;;;5018937;28;48302;-66
2022/01/02 05:26:19;;;;;;;4.63;2.07;;;2.50;75.20;;;;;;5020580;28;46382;-66
2022/01/02 05:28:44;;;;;;;3.77;2.30;;;2.50;74.90;;;;;;5020272;28;46326;-65
2022/01/02 05:31:10;;;;;;;3.40;1.90;;;2.50;75.00;;;;;;5021201;28;46513;-67
2022/01/02 05:33:36;;;;;;;3.40;2.10;;;2.50;74.90;;;;;;5020334;28;48644;-66
2022/01/02 05:36:02;;;;;;;3.17;2.03;;;2.50;74.80;;;;;;5020754;28;46246;-66
2022/01/02 05:38:30;;;;;;;3.00;2.10;;;2.50;74.80;;;;;;5020326;28;45900;-65
2022/01/02 05:40:58;;;;;;;4.28;2.10;;;2.40;74.80;;;;;;5026537;28;46422;-66
2022/01/02 05:43:27;;;;;;;3.15;2.03;;;2.40;74.80;;;;;;5019724;28;48990;-66
2022/01/02 05:45:53;;;;;;;4.00;2.17;;;2.40;74.80;;;;;;5011502;28;46402;-66
2022/01/02 05:48:22;;;;;;;4.70;2.20;;;2.50;74.80;;;;;;5020577;28;46346;-66
2022/01/02 05:50:47;;;;;;;2.70;1.65;;;2.50;75.90;;;;;;5020659;28;46469;-66
2022/01/02 05:53:21;;;;;;;2.57;1.73;;;2.50;74.60;;;;;;5020157;28;49023;-66
2022/01/02 05:55:46;;;;;;;3.40;1.95;;;2.50;74.60;;;;;;5022030;28;46603;-66
2022/01/02 05:58:15;;;;;;;2.27;1.83;;;2.50;74.60;;;;;;5020330;28;46350;-65
2022/01/02 06:00:40;;;;;;;2.75;1.90;;;2.50;74.50;;;;;;5020465;28;46361;-65
2022/01/02 06:03:06;;;;;;;4.63;2.40;;;2.60;74.50;;;;;;5019429;28;48907;-66
2022/01/02 06:05:32;;;;;;;3.73;2.00;;;2.60;74.30;;;;;;5019871;28;46483;-65
2022/01/02 06:07:57;;;;;;;3.90;2.20;;;2.60;74.20;;;;;;5020065;28;46271;-65
2022/01/02 06:10:23;;;;;;;4.50;2.57;;;2.70;74.20;;;;;;5020014;28;46006;-66
2022/01/02 06:12:49;;;;;;;4.43;2.50;;;2.70;74.10;;;;;;5017519;28;47122;-64
2022/01/02 06:15:15;;;;;;;4.87;2.37;;;2.70;74.20;;;;;;5022341;28;46459;-66
2022/01/02 06:17:40;;;;;;;3.40;2.33;;;2.60;74.20;;;;;;5020192;28;46507;-65
2022/01/02 06:20:06;;;;;;;3.90;2.20;;;2.60;74.30;;;;;;5021410;28;46402;-65
2022/01/02 06:22:32;;;;;;;2.85;2.08;;;2.60;74.30;;;;;;5016486;28;47883;-65
2022/01/02 06:24:58;;;;;;;3.30;2.13;;;2.60;74.30;;;;;;5017684;28;46616;-66
2022/01/02 06:27:24;;;;;;;3.07;2.07;;;2.60;74.40;;;;;;5018972;28;46425;-66
2022/01/02 06:29:50;;;;;;;6.25;2.55;;;2.60;74.30;;;;;;5019557;28;46438;-66
2022/01/02 06:32:18;;;;;;;3.50;2.20;;;2.70;74.30;;;;;;5024561;28;46266;-66
2022/01/02 06:34:46;;;;;;;5.97;2.25;;;2.70;74.20;;;;;;5021964;28;46350;-66
2022/01/02 06:37:12;;;;;;;4.15;2.60;;;2.70;74.10;;;;;;5024251;28;46446;-66
2022/01/02 06:39:40;;;;;;;4.90;2.50;;;2.70;74.00;;;;;;5023178;28;46471;-66
2022/01/02 06:42:06;;;;;;;4.20;2.45;;;2.70;74.00;;;;;;5024388;28;46431;-66
2022/01/02 06:44:32;;;;;;;3.40;2.40;;;2.80;73.90;;;;;;5024768;28;46594;-66
2022/01/02 06:46:58;;;;;;;3.20;2.23;;;2.80;73.90;;;;;;5027207;28;46426;-65
2022/01/02 06:49:23;;;;;;;2.63;2.13;;;2.80;73.90;;;;;;5022905;28;46549;-66
2022/01/02 06:51:49;;;;;;;2.90;2.00;;;2.80;73.90;;;;;;5023467;28;48789;-66
2022/01/02 06:54:17;;;;;;;2.70;2.40;;;2.80;74.00;;;;;;5024555;28;46647;-66
2022/01/02 06:56:43;;;;;;;4.93;2.50;;;2.80;73.80;;;;;;5022699;28;46405;-66
2022/01/02 06:59:08;;;;;;;3.27;1.90;;;2.80;73.70;;;;;;5032965;28;46449;-66
2022/01/02 07:01:34;;;;;;;3.17;2.20;;;2.90;73.70;;;;;;5022323;28;48994;-65
2022/01/02 07:04:00;;;;;;;3.80;1.93;;;2.90;73.70;;;;;;5022535;28;46209;-64
2022/01/02 07:06:26;;;;;;;2.50;1.63;;;2.90;74.10;;;;;;5023065;28;46373;-65
2022/01/02 07:08:51;;;;;;;1.60;1.20;;;3.00;74.00;;;;;;5023008;28;47617;-66
2022/01/02 07:11:18;;;;;;;1.90;1.40;;;3.10;73.80;;;;;;5023071;28;48203;-67
2022/01/02 07:13:43;;;;;;;2.17;1.40;;;3.20;73.70;;;;;;5022681;28;46203;-66
2022/01/02 07:16:09;;;;;;;2.40;1.40;;;3.30;73.60;;;;;;5024262;28;46346;-66
2022/01/02 07:18:35;;;;;;;2.57;1.47;;;3.40;73.60;;;;;;5022265;28;46291;-66
2022/01/02 07:21:03;;;;;;;3.47;1.90;;;3.50;73.60;;;;;;5022682;28;48912;-66
2022/01/02 07:23:28;;;;;;;2.38;1.50;;;3.60;74.60;;;;;;5018541;28;46348;-66
2022/01/02 07:25:54;;;;;;;5.37;1.63;;;3.60;73.30;;;;;;5021438;28;46472;-66
2022/01/02 07:28:23;;;;;;;3.17;1.80;;;3.60;73.40;;;;;;5020962;28;46456;-66
2022/01/02 07:30:52;;;;;;;3.08;2.17;;;3.50;73.40;;;;;;5023071;28;47384;-65
2022/01/02 07:33:20;;;;;;;2.42;1.65;;;3.50;73.50;;;;;;5022159;28;45890;-64
2022/01/02 07:35:48;;;;;;;2.53;1.60;;;3.40;73.40;;;;;;5022373;28;46300;-66
2022/01/02 07:38:13;;;;;;;3.73;1.93;;;3.50;73.70;;;;;;5022322;28;46584;-66
2022/01/02 07:40:39;;;;;;;2.30;1.80;;;3.50;73.40;;;;;;5022051;28;48016;-66
2022/01/02 07:43:05;;;;;;;3.40;2.00;;;3.60;73.10;;;;;;5021653;28;46366;-64
2022/01/02 07:45:37;;;;;;;4.60;1.90;;;3.70;72.90;;;;;;5021960;28;46381;-64
2022/01/02 07:48:05;;;;;;;2.60;1.85;;;3.70;72.60;;;;;;5021632;28;46441;-67
2022/01/02 07:50:39;;;;;;;3.40;1.83;;;3.80;72.70;;;;;;5022217;28;46253;-66
2022/01/02 07:53:06;;;;;;;3.20;2.15;;;3.80;72.60;;;;;;5009628;28;46298;-65
2022/01/02 07:55:32;;;;;;;2.42;1.75;;;3.90;72.70;;;;;;5022033;28;46725;-65
2022/01/02 07:57:58;;;;;;;2.33;1.50;;;3.80;72.60;;;;;;5022596;28;46254;-66
2022/01/02 08:00:24;;;;;;;3.03;2.07;;;3.80;72.60;;;;;;5021861;28;47363;-66
2022/01/02 08:02:52;;;;;;;2.85;2.03;;;3.90;72.70;;;;;;5021538;28;46457;-64
2022/01/02 08:05:18;;;;;;;2.65;1.90;;;4.00;72.80;;;;;;5031684;28;46087;-65
2022/01/02 08:07:46;;;;;;;4.30;2.20;;;4.10;72.90;;;;;;5021794;28;46386;-64
2022/01/02 08:10:12;;;;;;;3.35;2.20;;;4.10;72.90;;;;;;5021557;28;48803;-66
2022/01/02 08:12:37;;;;;;;3.30;2.17;;;4.30;73.00;;;;;;5024633;28;46448;-66
2022/01/02 08:15:03;;;;;;;2.33;2.00;;;4.30;72.80;;;;;;5023709;28;46323;-65
2022/01/02 08:17:31;;;;;;;5.13;2.30;;;4.40;72.40;;;;;;5020865;28;46494;-67
2022/01/02 08:19:57;;;;;;;5.30;2.30;;;4.40;72.40;;;;;;5021426;28;47696;-66
2022/01/02 08:22:23;;;;;;;1.97;1.57;;;4.50;72.30;;;;;;5021159;28;46410;-66
2022/01/02 08:24:48;;;;;;;2.40;1.60;;;4.60;72.40;;;;;;5018620;28;46634;-66
2022/01/02 08:27:17;;;;;;;2.30;1.70;;;4.60;72.40;;;;;;5015086;28;46632;-66
2022/01/02 08:29:42;;;;;;;3.50;1.70;;;4.70;72.30;;;;;;5034422;28;47995;-64
2022/01/02 08:32:08;;;;;;;5.00;1.73;;;4.70;72.20;;;;;;5021444;28;46764;-67
2022/01/02 08:34:36;;;;;;;3.20;2.30;;;4.70;72.30;;;;;;5023239;28;46266;-67
2022/01/02 08:37:02;;;;;;;4.50;2.10;;;4.80;72.50;;;;;;5022262;28;46552;-66
2022/01/02 08:39:28;;;;;;;7.87;3.00;;;4.80;72.60;;;;;;5020076;28;47711;-66
2022/01/02 08:41:53;;;;;;;6.10;2.87;;;4.80;72.80;;;;;;5021782;28;46425;-65
2022/01/02 08:44:20;;;;;;;6.67;2.33;;;4.90;72.90;;;;;;5020531;28;46256;-66
2022/01/02 08:46:45;;;;;;;6.00;2.17;;;4.90;72.90;;;;;;5022431;28;45822;-65
2022/01/02 08:49:11;;;;;;;3.63;1.93;;;4.80;73.50;;;;;;5022094;28;46491;-67
2022/01/02 08:51:39;;;;;;;3.10;1.87;;;4.80;73.50;;;;;;5019324;28;46361;-66
2022/01/02 08:54:05;;;;;;;2.28;1.52;;;4.70;73.40;;;;;;5022619;28;46267;-67
2022/01/02 08:56:32;;;;;;;3.13;1.97;;;4.70;73.40;;;;;;5020872;28;46508;-66
2022/01/02 08:59:00;;;;;;;3.67;1.97;;;4.70;73.50;;;;;;5023342;28;47933;-65
2022/01/02 09:01:29;;;;;;;3.38;1.85;;;4.70;73.40;;;;;;5023277;28;46425;-66
2022/01/02 09:03:55;;;;;;;2.93;2.20;;;4.80;73.50;;;;;;5020925;28;46363;-66
2022/01/02 09:06:20;;;;;;;5.40;2.43;;;4.90;73.20;;;;;;5021325;28;46364;-66
2022/01/02 09:08:48;;;;;;;5.57;2.60;;;5.10;72.50;;;;;;5018527;28;48699;-66
2022/01/02 09:11:14;;;;;;;4.35;2.42;;;5.30;72.30;;;;;;5018744;28;46295;-66
2022/01/02 09:13:39;;;;;;;3.80;2.47;;;5.60;71.80;;;;;;5022962;28;46321;-65
2022/01/02 09:16:08;;;;;;;4.83;2.80;;;5.80;71.30;;;;;;5019675;28;46631;-66
2022/01/02 09:18:33;;;;;;;9.37;4.13;;;6.10;70.90;;;;;;5037603;28;48363;-66
2022/01/02 09:21:00;;;;;;;7.67;3.30;;;6.30;70.70;;;;;;5022273;28;46376;-65
2022/01/02 09:23:25;;;;;;;5.60;3.30;;;6.50;70.40;;;;;;5019837;28;46272;-65
2022/01/02 09:25:51;;;;;;;6.43;3.13;;;6.80;70.20;;;;;;5017765;28;46012;-64
2022/01/02 09:28:17;;;;;;;5.27;2.33;;;7.00;69.90;;;;;;5019738;28;46704;-66
2022/01/02 09:30:45;;;;;;;3.60;2.43;;;7.30;69.50;;;;;;5021419;28;46542;-67
2022/01/02 09:33:11;;;;;;;4.00;2.70;;;7.60;68.90;;;;;;5026495;28;46457;-67
2022/01/02 09:35:38;;;;;;;6.97;3.50;;;8.00;68.30;;;;;;5023527;28;46331;-67
2022/01/02 09:38:04;;;;;;;7.27;3.53;;;8.40;67.50;;;;;;5024172;28;46286;-67
2022/01/02 09:40:32;;;;;;;6.73;3.47;;;8.70;66.90;;;;;;5024483;28;46379;-66
2022/01/02 09:42:59;;;;;;;6.93;3.73;;;8.90;66.40;;;;;;5019171;28;45819;-66
2022/01/02 09:45:25;;;;;;;9.50;4.40;;;9.30;66.00;;;;;;5019174;28;46335;-64
2022/01/02 09:47:52;;;;;;;6.77;3.90;;;9.60;65.10;;;;;;5035527;28;48110;-65
2022/01/02 09:50:18;;;;;;;8.37;3.93;;;9.90;65.30;;;;;;5018442;28;46410;-66
2022/01/02 09:52:49;;;;;;;4.60;2.77;;;10.10;64.10;;;;;;5021485;28;46400;-66
2022/01/02 09:55:15;;;;;;;3.90;2.30;;;10.30;63.40;;;;;;5023699;28;46631;-66
2022/01/02 09:57:48;;;;;;;4.70;2.47;;;10.50;63.00;;;;;;5021893;28;48085;-66
2022/01/02 10:00:14;;;;;;;3.70;1.80;;;10.60;62.80;;;;;;5023111;28;46381;-66
2022/01/02 10:03:04;;;;;;;2.97;1.70;;;10.50;62.80;;;;;;5022813;28;46380;-67
2022/01/02 10:05:52;;;;;;;2.90;1.77;;;10.50;62.50;;;;;;5026734;28;46374;-67
2022/01/02 10:08:24;;;;;;;7.17;2.10;;;10.50;62.60;;;;;;5038161;28;48969;-66
2022/01/02 10:11:00;;;;;;;3.57;2.30;;;10.60;62.80;;;;;;5037902;28;45833;-67
2022/01/02 10:13:44;;;;;;;4.70;2.20;;;10.60;62.60;;;;;;5022656;28;46240;-66
2022/01/02 10:16:31;;;;;;;6.70;2.60;;;10.60;62.30;;;;;;5022091;28;46604;-66
2022/01/02 10:19:00;;;;;;;2.77;1.90;;;10.70;62.60;;;;;;5015033;28;46212;-68
2022/01/02 10:21:59;;;;;;;2.00;1.40;;;10.70;62.70;;;;;;5023352;28;46334;-66
2022/01/02 10:24:31;;;;;;;2.00;1.10;;;10.80;62.30;;;;;;5019654;28;46448;-66
2022/01/02 10:27:06;;;;;;;1.80;1.13;;;11.00;62.30;;;;;;5041163;28;46440;-66
2022/01/02 10:29:59;;;;;;;1.60;1.00;;;11.20;61.80;;;;;;5022670;28;47903;-67
2022/01/02 10:32:43;;;;;;;1.60;1.00;;;11.40;61.30;;;;;;5034974;28;46379;-66
2022/01/02 10:35:21;;;;;;;1.70;1.10;;;11.40;61.60;;;;;;5021645;28;46427;-66
2022/01/02 10:37:50;;;;;;;1.63;1.07;;;11.50;61.10;;;;;;5023119;28;46343;-66
2022/01/02 10:40:35;;;;;;;1.43;0.90;;;11.50;61.20;;;;;;5021860;28;46559;-66
2022/01/02 10:43:22;;;;;;;3.50;2.13;;;11.60;60.70;;;;;;5022707;28;46211;-66
2022/01/02 10:45:50;;;;;;;2.63;1.83;;;11.70;60.50;;;;;;5024143;28;46523;-66
2022/01/02 10:48:40;;;;;;;1.70;0.90;;;11.80;60.40;;;;;;5023075;28;46626;-66
2022/01/02 10:51:14;;;;;;;2.20;1.50;;;12.00;59.50;;;;;;5023878;28;46540;-66
2022/01/02 10:54:04;;;;;;;1.70;1.00;;;12.10;59.60;;;;;;5020632;28;46572;-66
2022/01/02 10:56:32;;;;;;;1.83;1.13;;;12.20;58.80;;;;;;5020503;28;46407;-67
2022/01/02 10:58:59;;;;;;;1.80;1.00;;;12.30;58.80;;;;;;5024132;28;45901;-66
2022/01/02 11:01:27;;;;;;;1.70;1.10;;;12.50;58.40;;;;;;5028321;28;47407;-67
2022/01/02 11:03:55;;;;;;;3.10;1.23;;;12.70;57.80;;;;;;5025309;28;46397;-67
2022/01/02 11:06:29;;;;;;;3.30;1.77;;;12.80;57.20;;;;;;5024234;28;46461;-68
2022/01/02 11:08:58;;;;;;;3.10;2.10;;;13.00;56.60;;;;;;5020222;28;46331;-67
2022/01/02 11:11:24;;;;;;;3.80;1.40;;;13.20;56.30;;;;;;5024746;28;48019;-65
2022/01/02 11:13:51;;;;;;;2.03;1.20;;;13.30;55.90;;;;;;5025379;28;46393;-67
2022/01/02 11:16:17;;;;;;;2.67;1.50;;;13.40;55.60;;;;;;5030058;28;46212;-66
2022/01/02 11:18:47;;;;;;;11.80;6.53;;;13.40;55.40;;;;;;5025825;28;46585;-66
2022/01/02 11:21:14;;;;;;;4.73;2.70;;;13.30;54.90;;;;;;5027737;28;46496;-66
2022/01/02 11:23:55;;;;;;;2.17;1.33;;;13.30;55.10;;;;;;5026207;28;46446;-66
2022/01/02 11:26:29;;;;;;;2.13;1.40;;;13.20;54.60;;;;;;5021792;28;46820;-66
2022/01/02 11:28:57;;;;;;;2.33;1.57;;;13.30;55.10;;;;;;5012676;28;46800;-66
2022/01/02 11:31:28;;;;;;;3.30;2.00;;;13.30;54.70;;;;;;5022738;28;46549;-66
2022/01/02 11:33:54;;;;;;;3.30;1.90;;;13.60;55.00;;;;;;5025876;28;46331;-66
2022/01/02 11:36:29;;;;;;;2.03;1.00;;;13.80;54.30;;;;;;5025204;28;46402;-67
2022/01/02 11:39:12;;;;;;;4.60;2.80;;;14.00;53.50;;;;;;5022013;28;46521;-67
2022/01/02 11:41:45;;;;;;;7.33;2.40;;;14.20;52.70;;;;;;5021957;28;47840;-66
2022/01/02 11:44:22;;;;;;;2.27;1.40;;;14.40;52.40;;;;;;5021579;28;46252;-67
2022/01/02 11:46:56;;;;;;;7.73;1.33;;;14.70;51.30;;;;;;5022512;28;46279;-66
2022/01/02 11:49:40;;;;;;;1.93;1.07;;;14.90;51.10;;;;;;5034007;28;46372;-66
2022/01/02 11:52:22;;;;;;;1.80;1.07;;;14.90;50.40;;;;;;5020441;28;49007;-67
2022/01/02 11:54:50;;;;;;;3.50;2.27;;;14.80;50.30;;;;;;5037616;28;46573;-67
2022/01/02 11:57:18;;;;;;;2.67;1.03;;;14.70;50.50;;;;;;5018044;28;46401;-67
2022/01/02 11:59:46;;;;;;;2.90;1.27;;;14.70;50.00;;;;;;5019834;28;46352;-66
2022/01/02 12:02:18;;;;;;;2.10;1.07;;;14.80;49.50;;;;;;5022720;28;47865;-67
2022/01/02 12:04:59;;;;;;;1.70;1.00;;;15.00;48.80;;;;;;5023722;28;46302;-66
2022/01/02 12:07:34;;;;;;;1.87;0.93;;;15.20;47.50;;;;;;5012144;28;46439;-66
2022/01/02 12:10:20;;;;;;;2.40;0.90;;;15.20;47.20;;;;;;5021668;28;46604;-66
2022/01/02 12:13:10;;;;;;;1.57;0.90;;;15.10;46.80;;;;;;5013447;28;48146;-66
2022/01/02 12:15:38;;;;;;;1.97;0.80;;;14.90;46.90;;;;;;5023039;28;46291;-67
2022/01/02 12:18:28;;;;;;;1.60;0.90;;;14.90;47.20;;;;;;5021661;28;46378;-66
2022/01/02 12:20:56;;;;;;;1.70;0.90;;;14.90;46.00;;;;;;5037646;28;45821;-67
2022/01/02 12:26:07;;;;;;;2.50;1.10;;;15.20;45.20;;;;;;5020982;28;45768;-66
2022/01/02 12:29:06;;;;;;;3.03;1.00;;;15.40;45.20;;;;;;5021130;28;46501;-67
2022/01/02 12:31:40;;;;;;;1.83;1.00;;;15.50;44.00;;;;;;5021709;28;46441;-67
2022/01/02 12:34:14;;;;;;;3.40;1.27;;;15.60;44.00;;;;;;5024502;28;46241;-67
2022/01/02 12:36:42;;;;;;;2.50;1.20;;;15.70;43.80;;;;;;5021399;28;46469;-66
2022/01/02 12:39:11;;;;;;;2.40;1.20;;;15.70;43.80;;;;;;5021161;28;46221;-67
2022/01/02 12:41:40;;;;;;;2.00;1.13;;;15.70;43.80;;;;;;5022251;28;46449;-67
2022/01/02 12:44:06;;;;;;;8.27;1.23;;;15.60;43.60;;;;;;5019439;28;47851;-66
2022/01/02 12:46:50;;;;;;;2.20;1.10;;;15.60;43.60;;;;;;5020979;28;46336;-67
2022/01/02 12:49:21;;;;;;;2.53;1.10;;;15.40;42.40;;;;;;5020888;28;46299;-67
2022/01/02 12:51:53;;;;;;;4.63;1.30;;;15.30;43.30;;;;;;5019345;28;46469;-67
2022/01/02 12:54:24;;;;;;;4.83;1.70;;;15.20;42.70;;;;;;5021175;28;48026;-66
2022/01/02 12:56:52;;;;;;;2.47;1.27;;;15.10;42.70;;;;;;5021162;28;46668;-67
2022/01/02 12:59:24;;;;;;;2.73;1.47;;;14.90;42.60;;;;;;5033694;28;46292;-66
2022/01/02 13:02:02;;;;;;;4.30;1.80;;;14.80;42.10;;;;;;5021321;28;46541;-66
2022/01/02 13:04:33;;;;;;;3.60;1.50;;;14.70;41.60;;;;;;5020602;28;47822;-66
2022/01/02 13:07:14;;;;;;;1.80;1.10;;;14.60;41.90;;;;;;5034676;28;46386;-66
2022/01/02 13:09:43;;;;;;;2.30;1.27;;;14.60;41.70;;;;;;5037003;28;46269;-66
2022/01/02 13:12:19;;;;;;;6.83;1.43;;;14.60;42.40;;;;;;5035965;28;46463;-66
2022/01/02 13:14:54;;;;;;;2.87;1.30;;;14.60;41.80;;;;;;5027804;28;47765;-66
2022/01/02 13:17:34;;;;;;;2.10;1.20;;;14.60;41.40;;;;;;5034733;28;45779;-66